Time;durP1;ratioP1;P1;durP2;ratioP2;P2;SDS_P1;SDS_P2;PMS_P1;PMS_P2;Temp;Humidity;BMP_temperature;BMP_pressure;BME280_temperature;BME280_humidity;BME280_pressure;Samples;Min_cycle;Max_cycle;Signal;HPM_P1;HPM_P2
2021/12/01 00:00:33;;;;;;;10.30;6.63;;;6.30;91.80;;;;;;5068248;28;20025;-55
2021/12/01 00:03:00;;;;;;;10.60;6.97;;;6.30;92.00;;;;;;5068421;28;20052;-51
2021/12/01 00:05:30;;;;;;;10.65;6.10;;;6.30;91.80;;;;;;5067190;28;20085;-56
2021/12/01 00:08:01;;;;;;;11.60;6.30;;;6.30;91.90;;;;;;5057786;28;20473;-53
2021/12/01 00:10:34;;;;;;;11.18;6.88;;;6.30;91.90;;;;;;5051695;28;20504;-56
2021/12/01 00:13:06;;;;;;;12.82;6.60;;;6.30;92.00;;;;;;5074232;28;20028;-55
2021/12/01 00:15:33;;;;;;;8.82;6.18;;;6.30;92.00;;;;;;5068100;28;20338;-55
2021/12/01 00:18:01;;;;;;;9.30;5.90;;;6.30;92.00;;;;;;5068424;28;20020;-53
2021/12/01 00:20:37;;;;;;;13.75;6.13;;;6.30;92.10;;;;;;5064538;28;20032;-55
2021/12/01 00:23:10;;;;;;;8.88;6.13;;;6.30;92.10;;;;;;5068329;28;20052;-56
2021/12/01 00:25:42;;;;;;;11.77;6.70;;;6.30;92.20;;;;;;5061476;28;20039;-57
2021/12/01 00:28:12;;;;;;;9.07;6.60;;;6.40;92.20;;;;;;5062206;28;20046;-53
2021/12/01 00:30:42;;;;;;;10.43;7.15;;;6.40;92.30;;;;;;5068827;28;20063;-54
2021/12/01 00:33:23;;;;;;;14.90;7.75;;;6.40;92.20;;;;;;5059143;28;20036;-55
2021/12/01 00:35:55;;;;;;;14.68;8.18;;;6.30;92.20;;;;;;5068552;28;20024;-56
2021/12/01 00:38:24;;;;;;;12.15;9.20;;;6.40;92.20;;;;;;5067738;28;20048;-56
2021/12/01 00:40:50;;;;;;;10.07;7.68;;;6.40;92.20;;;;;;5067124;28;20025;-52
2021/12/01 00:43:18;;;;;;;10.98;7.93;;;6.40;92.20;;;;;;5068125;28;20039;-56
2021/12/01 00:45:57;;;;;;;10.52;6.75;;;6.30;92.30;;;;;;5068427;28;20450;-54
2021/12/01 00:48:24;;;;;;;10.97;7.90;;;6.30;92.40;;;;;;5067895;28;20112;-56
2021/12/01 00:50:53;;;;;;;9.48;5.85;;;6.40;92.40;;;;;;5067944;28;20528;-58
2021/12/01 00:53:23;;;;;;;9.00;6.22;;;6.40;92.40;;;;;;5050387;28;20423;-59
2021/12/01 00:55:53;;;;;;;;;;;6.40;92.50;;;;;;5068257;28;20029;-58
2021/12/01 00:58:23;;;;;;;8.95;4.93;;;6.40;92.50;;;;;;5067631;28;19905;-58
2021/12/01 01:00:54;;;;;;;8.48;5.63;;;6.40;92.50;;;;;;5066952;28;20373;-59
2021/12/01 01:03:21;;;;;;;8.55;5.03;;;6.40;92.50;;;;;;5067793;28;20097;-56
2021/12/01 01:05:49;;;;;;;8.75;5.47;;;6.40;92.60;;;;;;5068150;28;20025;-57
2021/12/01 01:08:20;;;;;;;8.32;4.95;;;6.40;92.60;;;;;;5050300;28;20052;-54
2021/12/01 01:19:00;;;;;;;7.45;5.28;;;6.40;92.80;;;;;;5037275;28;20128;-57
2021/12/01 01:21:33;;;;;;;8.45;5.40;;;6.40;92.80;;;;;;5052384;28;20025;-55
2021/12/01 01:24:06;;;;;;;9.18;5.60;;;6.50;92.80;;;;;;5071024;28;20033;-58
2021/12/01 01:26:38;;;;;;;7.47;4.90;;;6.50;92.80;;;;;;5070283;28;20146;-54
2021/12/01 01:29:06;;;;;;;7.43;4.97;;;6.50;92.80;;;;;;5071027;28;20036;-57
2021/12/01 01:31:33;;;;;;;7.55;5.18;;;6.50;92.80;;;;;;5070585;28;20025;-56
2021/12/01 01:34:09;;;;;;;7.22;4.75;;;6.50;92.80;;;;;;5053576;28;20452;-57
2021/12/01 01:36:38;;;;;;;7.82;5.00;;;6.60;92.80;;;;;;5054492;28;20033;-57
2021/12/01 01:39:08;;;;;;;7.28;4.90;;;6.60;92.90;;;;;;5073802;28;20035;-56
2021/12/01 01:41:35;;;;;;;7.38;4.88;;;6.60;92.90;;;;;;5075704;28;20364;-57
2021/12/01 01:44:01;;;;;;;6.93;4.50;;;6.70;92.80;;;;;;5070854;28;20025;-57
2021/12/01 01:46:34;;;;;;;7.80;4.55;;;6.60;92.90;;;;;;5060470;28;20032;-57
2021/12/01 01:49:33;;;;;;;7.57;5.03;;;6.70;92.90;;;;;;5065834;28;20037;-52
2021/12/01 01:51:52;;;;;;;7.90;5.32;;;6.70;92.90;;;;;;5054740;28;20032;-53
2021/12/01 01:54:19;;;;;;;8.05;5.50;;;6.70;92.80;;;;;;5069992;28;20044;-54
2021/12/01 01:56:49;;;;;;;7.00;4.50;;;6.80;92.90;;;;;;5070322;28;20062;-54
2021/12/01 01:59:16;;;;;;;;;;;6.80;93.00;;;;;;5065550;28;20035;-53
2021/12/01 02:01:44;;;;;;;7.65;4.90;;;6.90;93.00;;;;;;5061800;28;19927;-55
2021/12/01 02:04:15;;;;;;;7.55;4.47;;;6.90;93.10;;;;;;5053292;28;20421;-53
2021/12/01 02:06:46;;;;;;;8.27;4.50;;;6.90;93.10;;;;;;5069124;28;20452;-51
2021/12/01 02:09:19;;;;;;;7.53;4.50;;;7.00;93.10;;;;;;5070411;28;20441;-51
2021/12/01 02:11:47;;;;;;;9.32;5.55;;;7.00;93.10;;;;;;5052675;28;20035;-52
2021/12/01 02:14:16;;;;;;;8.55;5.65;;;7.00;93.20;;;;;;5052616;28;20048;-51
2021/12/01 02:16:43;;;;;;;8.90;5.20;;;7.10;93.20;;;;;;5070013;28;20035;-49
2021/12/01 02:19:16;;;;;;;10.25;5.90;;;7.20;93.30;;;;;;5070560;28;20025;-54
2021/12/01 02:21:43;;;;;;;10.27;6.90;;;7.20;93.30;;;;;;5053448;28;20028;-49
2021/12/01 02:24:16;;;;;;;12.90;6.95;;;7.20;93.40;;;;;;5070220;28;20021;-52
2021/12/01 02:26:46;;;;;;;12.45;7.70;;;7.30;93.40;;;;;;5069570;28;20110;-48
2021/12/01 02:29:27;;;;;;;13.35;8.88;;;7.40;93.50;;;;;;5068873;28;20048;-46
2021/12/01 02:31:55;;;;;;;16.15;9.82;;;7.40;93.50;;;;;;5064410;28;20025;-52
2021/12/01 02:34:24;;;;;;;17.77;11.02;;;7.40;93.50;;;;;;5063399;28;20643;-50
2021/12/01 02:36:55;;;;;;;17.63;10.95;;;7.40;93.50;;;;;;5068498;28;20036;-47
2021/12/01 02:39:25;;;;;;;19.60;11.98;;;7.50;93.60;;;;;;5077256;28;20016;-49
2021/12/01 02:41:59;;;;;;;22.70;12.40;;;7.50;93.60;;;;;;5086277;28;20036;-47
2021/12/01 02:44:27;;;;;;;18.80;12.82;;;7.60;93.60;;;;;;5060550;28;20029;-49
2021/12/01 02:47:00;;;;;;;22.33;13.38;;;7.60;93.70;;;;;;5069582;28;20480;-46
2021/12/01 02:49:31;;;;;;;25.50;15.13;;;7.70;93.60;;;;;;5070879;28;20032;-46
2021/12/01 02:51:58;;;;;;;22.95;14.38;;;7.80;93.70;;;;;;5057625;28;20067;-45
2021/12/01 02:54:29;;;;;;;23.92;16.25;;;7.80;93.70;;;;;;5045121;28;20033;-45
2021/12/01 02:56:56;;;;;;;24.45;15.10;;;7.80;93.70;;;;;;5050892;28;20040;-46
2021/12/01 02:59:26;;;;;;;27.83;16.50;;;7.80;93.70;;;;;;5048858;28;20029;-46
2021/12/01 03:01:55;;;;;;;26.55;16.88;;;7.80;93.70;;;;;;5069508;28;20098;-49
2021/12/01 03:04:22;;;;;;;28.92;17.67;;;7.90;93.80;;;;;;5049936;28;20036;-47
2021/12/01 03:06:54;;;;;;;25.90;17.02;;;7.90;93.70;;;;;;5053697;28;20021;-48
2021/12/01 03:09:21;;;;;;;28.55;17.77;;;7.90;93.80;;;;;;5052986;28;20099;-45
2021/12/01 03:11:49;;;;;;;27.55;17.48;;;7.90;93.80;;;;;;5070009;28;20020;-44
2021/12/01 03:14:20;;;;;;;33.95;18.45;;;8.00;93.80;;;;;;5055643;28;20131;-47
2021/12/01 03:16:57;;;;;;;32.90;21.50;;;8.10;93.80;;;;;;5069306;28;20033;-45
2021/12/01 03:19:24;;;;;;;36.10;20.27;;;8.20;93.90;;;;;;5069733;28;20107;-47
2021/12/01 03:21:54;;;;;;;40.17;21.33;;;8.20;93.90;;;;;;5035441;28;20036;-47
2021/12/01 03:24:23;;;;;;;36.08;20.88;;;8.10;93.80;;;;;;5052725;28;20078;-50
2021/12/01 03:26:54;;;;;;;34.70;19.88;;;8.20;93.80;;;;;;5068895;28;20054;-47
2021/12/01 03:29:21;;;;;;;35.35;21.27;;;8.30;93.90;;;;;;5069021;28;20029;-47
2021/12/01 03:31:49;;;;;;;36.55;21.27;;;8.30;93.90;;;;;;5068922;28;20492;-45
2021/12/01 03:34:16;;;;;;;34.80;20.48;;;8.40;93.90;;;;;;5069019;28;20075;-47
2021/12/01 03:36:45;;;;;;;29.08;19.50;;;8.40;93.90;;;;;;5068711;28;20548;-45
2021/12/01 03:39:12;;;;;;;32.67;18.00;;;8.50;94.00;;;;;;5073802;28;20319;-45
2021/12/01 03:41:39;;;;;;;31.42;17.92;;;8.50;94.00;;;;;;5085855;28;20277;-51
2021/12/01 03:44:06;;;;;;;23.10;14.50;;;8.60;93.90;;;;;;5068343;28;20035;-48
2021/12/01 03:46:37;;;;;;;22.40;14.13;;;8.60;94.00;;;;;;5068024;28;20037;-53
2021/12/01 03:49:09;;;;;;;20.83;13.20;;;8.60;94.00;;;;;;5068878;28;20035;-55
2021/12/01 03:51:37;;;;;;;17.63;12.75;;;8.70;93.90;;;;;;5068562;28;20052;-53
2021/12/01 03:54:11;;;;;;;20.38;12.93;;;8.70;93.90;;;;;;5050896;28;20037;-58
2021/12/01 03:56:39;;;;;;;17.95;12.05;;;8.70;94.00;;;;;;5051888;28;20168;-51
2021/12/01 03:59:06;;;;;;;19.35;12.90;;;8.70;94.00;;;;;;5048352;28;20445;-54
2021/12/01 04:01:34;;;;;;;19.48;13.27;;;8.80;94.00;;;;;;5068008;28;20024;-55
2021/12/01 04:04:03;;;;;;;19.05;12.68;;;8.80;94.00;;;;;;5050914;28;20028;-53
2021/12/01 04:06:30;;;;;;;20.00;13.07;;;8.70;94.00;;;;;;5068350;28;20029;-55
2021/12/01 04:08:59;;;;;;;19.55;11.48;;;8.80;94.00;;;;;;5050768;28;20048;-53
2021/12/01 04:11:31;;;;;;;21.40;11.45;;;8.80;94.00;;;;;;5053773;28;20063;-49
2021/12/01 04:14:03;;;;;;;17.08;12.18;;;8.80;94.00;;;;;;5067848;28;20063;-52
2021/12/01 04:16:33;;;;;;;20.50;12.75;;;8.80;94.00;;;;;;5048938;28;20052;-50
2021/12/01 04:19:00;;;;;;;16.60;10.55;;;8.80;94.00;;;;;;5051099;28;20032;-48
2021/12/01 04:21:27;;;;;;;21.45;11.88;;;8.90;94.00;;;;;;5050617;28;20351;-51
2021/12/01 04:23:57;;;;;;;18.90;10.60;;;8.90;94.00;;;;;;5050724;28;20389;-52
2021/12/01 04:26:26;;;;;;;16.00;9.65;;;8.90;94.00;;;;;;5057830;28;20063;-52
2021/12/01 04:28:55;;;;;;;13.23;9.27;;;8.90;94.10;;;;;;5068360;28;20810;-51
2021/12/01 04:31:24;;;;;;;16.17;8.98;;;8.90;94.00;;;;;;5067941;28;20040;-54
2021/12/01 04:33:51;;;;;;;13.43;8.18;;;8.90;94.00;;;;;;5068594;28;20033;-57
2021/12/01 04:36:20;;;;;;;12.65;7.63;;;8.90;94.00;;;;;;5067171;28;20513;-52
2021/12/01 04:38:46;;;;;;;14.20;8.80;;;8.90;94.00;;;;;;5070232;28;20066;-53
2021/12/01 04:41:17;;;;;;;10.70;7.70;;;9.00;94.00;;;;;;5071114;28;20044;-50
2021/12/01 04:43:47;;;;;;;11.30;6.97;;;8.90;94.00;;;;;;5066604;28;20128;-51
2021/12/01 04:46:20;;;;;;;9.35;6.28;;;9.00;94.10;;;;;;5067106;28;20047;-49
2021/12/01 04:48:48;;;;;;;10.18;6.70;;;9.00;94.00;;;;;;5067994;28;20040;-57
2021/12/01 04:51:17;;;;;;;9.73;6.28;;;9.10;94.10;;;;;;5068053;28;20025;-53
2021/12/01 04:53:48;;;;;;;;;;;9.10;94.10;;;;;;5069096;28;20107;-53
2021/12/01 04:56:26;;;;;;;7.72;5.43;;;9.10;94.00;;;;;;5067248;28;19916;-49
2021/12/01 04:58:53;;;;;;;7.53;4.78;;;9.10;94.00;;;;;;5050735;28;20626;-54
2021/12/01 05:01:20;;;;;;;6.05;3.80;;;9.20;94.10;;;;;;5067711;28;20085;-52
2021/12/01 05:03:49;;;;;;;6.63;3.47;;;9.20;94.10;;;;;;5034714;28;20115;-50
2021/12/01 05:06:19;;;;;;;3.85;2.55;;;9.20;94.10;;;;;;5068088;28;20043;-51
2021/12/01 05:08:54;;;;;;;4.60;2.67;;;9.20;94.10;;;;;;5058438;28;20120;-51
2021/12/01 05:11:27;;;;;;;5.28;3.10;;;9.20;94.10;;;;;;5068068;28;20028;-49
2021/12/01 05:13:56;;;;;;;5.28;3.28;;;9.30;94.10;;;;;;5052235;28;20064;-51
2021/12/01 05:16:24;;;;;;;6.18;3.47;;;9.30;94.00;;;;;;5067567;28;20408;-52
2021/12/01 05:18:51;;;;;;;6.10;2.47;;;9.30;94.00;;;;;;5067982;28;20412;-53
2021/12/01 05:21:18;;;;;;;8.60;3.03;;;9.30;93.90;;;;;;5050292;28;20028;-54
2021/12/01 05:23:50;;;;;;;4.30;1.83;;;9.40;93.90;;;;;;5067820;28;20037;-53
2021/12/01 05:26:21;;;;;;;5.38;1.50;;;9.40;93.90;;;;;;5067119;28;20048;-55
2021/12/01 05:28:54;;;;;;;3.80;1.50;;;9.30;93.80;;;;;;5067873;28;20043;-55
2021/12/01 05:31:25;;;;;;;4.70;1.83;;;9.40;93.80;;;;;;5067345;28;20033;-56
2021/12/01 05:33:55;;;;;;;4.22;1.48;;;9.40;93.80;;;;;;5066671;28;20032;-57
2021/12/01 05:36:34;;;;;;;4.10;1.48;;;9.40;93.70;;;;;;5067088;28;20037;-56
2021/12/01 05:39:01;;;;;;;4.88;1.60;;;9.40;93.70;;;;;;5062215;28;20123;-55
2021/12/01 05:41:30;;;;;;;2.22;1.10;;;9.40;93.70;;;;;;5085662;28;20028;-56
2021/12/01 05:43:58;;;;;;;3.33;1.52;;;9.30;93.60;;;;;;5067326;28;20115;-55
2021/12/01 05:46:30;;;;;;;3.05;1.80;;;9.30;93.60;;;;;;5067261;28;20101;-57
2021/12/01 05:48:57;;;;;;;4.15;1.90;;;9.40;93.60;;;;;;5049813;28;20028;-54
2021/12/01 05:51:27;;;;;;;5.38;2.00;;;9.30;93.60;;;;;;5068045;28;20033;-54
2021/12/01 05:53:55;;;;;;;3.78;2.03;;;9.40;93.60;;;;;;5066616;28;20120;-56
2021/12/01 05:56:22;;;;;;;6.03;1.85;;;9.30;93.60;;;;;;5066836;28;20020;-53
2021/12/01 05:58:51;;;;;;;3.95;2.60;;;9.30;93.50;;;;;;5066152;28;20048;-50
2021/12/01 06:01:21;;;;;;;3.63;2.20;;;9.40;93.60;;;;;;5049765;28;20040;-51
2021/12/01 06:03:48;;;;;;;4.78;2.22;;;9.30;93.50;;;;;;5050737;28;20052;-51
2021/12/01 06:06:15;;;;;;;4.35;2.60;;;9.30;93.50;;;;;;5036564;28;20032;-58
2021/12/01 06:08:42;;;;;;;3.80;2.25;;;9.30;93.50;;;;;;5070440;28;20033;-57
2021/12/01 06:11:17;;;;;;;4.18;2.00;;;9.30;93.50;;;;;;5070631;28;20029;-55
2021/12/01 06:13:47;;;;;;;3.65;2.30;;;9.20;93.50;;;;;;5070404;28;20457;-57
2021/12/01 06:16:14;;;;;;;3.25;2.15;;;9.30;93.50;;;;;;5051767;28;20032;-56
2021/12/01 06:18:44;;;;;;;5.25;2.42;;;9.30;93.50;;;;;;5069828;28;20090;-55
2021/12/01 06:21:15;;;;;;;5.00;2.65;;;9.30;93.50;;;;;;5053115;28;20089;-53
2021/12/01 06:23:41;;;;;;;2.97;1.98;;;9.30;93.40;;;;;;5070319;28;20029;-56
2021/12/01 06:26:12;;;;;;;5.25;2.10;;;9.30;93.40;;;;;;5069709;28;20025;-54
2021/12/01 06:28:42;;;;;;;3.85;2.58;;;9.30;93.40;;;;;;5052483;28;20041;-52
2021/12/01 06:31:10;;;;;;;3.42;2.08;;;9.20;93.30;;;;;;5060466;28;20028;-54
2021/12/01 06:33:37;;;;;;;3.85;2.28;;;9.20;93.30;;;;;;5054177;28;20433;-55
2021/12/01 06:36:04;;;;;;;3.78;2.38;;;9.20;93.30;;;;;;5069681;28;20051;-54
2021/12/01 06:38:32;;;;;;;4.57;2.20;;;9.20;93.30;;;;;;5069220;28;20422;-52
2021/12/01 06:41:02;;;;;;;3.13;1.92;;;9.20;93.30;;;;;;5052473;28;20024;-49
2021/12/01 06:43:32;;;;;;;2.85;1.50;;;9.20;93.30;;;;;;5056386;28;20027;-51
2021/12/01 06:46:01;;;;;;;;;;;9.20;93.30;;;;;;5069711;28;20414;-53
2021/12/01 06:48:28;;;;;;;2.50;1.40;;;9.10;93.20;;;;;;5066922;28;19978;-52
2021/12/01 06:50:55;;;;;;;4.55;1.63;;;9.10;93.10;;;;;;5069664;28;20059;-53
2021/12/01 06:53:26;;;;;;;2.28;1.25;;;9.10;93.10;;;;;;5059282;28;20021;-52
2021/12/01 06:55:54;;;;;;;3.28;1.98;;;9.10;93.10;;;;;;5064211;28;20335;-54
2021/12/01 06:58:21;;;;;;;3.25;1.60;;;9.00;93.00;;;;;;5048574;28;20020;-53
2021/12/01 07:00:55;;;;;;;1.90;1.10;;;9.00;93.00;;;;;;5068265;28;20024;-54
2021/12/01 07:03:22;;;;;;;2.03;1.02;;;9.00;93.00;;;;;;5057607;28;20059;-55
2021/12/01 07:05:50;;;;;;;2.00;1.05;;;9.00;93.00;;;;;;5052148;28;20035;-55
2021/12/01 07:08:19;;;;;;;1.98;1.20;;;8.90;92.90;;;;;;5068615;28;20025;-52
2021/12/01 07:10:49;;;;;;;2.58;1.27;;;8.90;93.00;;;;;;5066876;28;20074;-52
2021/12/01 07:13:16;;;;;;;;;;;8.90;92.90;;;;;;5063493;28;20036;-54
2021/12/01 07:15:43;;;;;;;2.63;1.20;;;8.90;92.90;;;;;;5066203;28;20014;-52
2021/12/01 07:18:10;;;;;;;1.67;1.00;;;8.90;92.90;;;;;;5056721;28;20021;-55
2021/12/01 07:20:40;;;;;;;2.42;1.10;;;8.90;92.90;;;;;;5056989;28;20449;-53
2021/12/01 07:23:13;;;;;;;2.22;1.13;;;8.90;92.80;;;;;;5042727;28;20353;-49
2021/12/01 07:25:45;;;;;;;1.90;1.13;;;8.90;92.70;;;;;;5067831;28;20074;-55
2021/12/01 07:28:15;;;;;;;2.08;1.10;;;8.90;92.70;;;;;;5052622;28;20076;-50
2021/12/01 07:30:45;;;;;;;2.35;1.17;;;8.90;92.50;;;;;;5057629;28;20131;-50
2021/12/01 07:33:15;;;;;;;2.15;1.20;;;8.90;92.60;;;;;;5050322;28;20025;-52
2021/12/01 07:35:41;;;;;;;2.30;1.45;;;8.90;92.50;;;;;;5057894;28;20398;-53
2021/12/01 07:38:08;;;;;;;2.45;1.40;;;8.90;92.50;;;;;;5063191;28;20107;-53
2021/12/01 07:40:37;;;;;;;2.67;1.45;;;8.90;92.30;;;;;;5066918;28;20032;-55
2021/12/01 07:43:07;;;;;;;2.20;1.33;;;8.90;92.30;;;;;;5067792;28;20025;-50
2021/12/01 07:45:42;;;;;;;3.20;1.60;;;8.90;92.20;;;;;;5066673;28;20389;-50
2021/12/01 07:48:17;;;;;;;2.63;1.52;;;8.90;92.10;;;;;;5069094;28;20020;-49
2021/12/01 07:50:46;;;;;;;5.95;1.90;;;8.80;92.00;;;;;;5050813;28;20029;-50
2021/12/01 07:53:16;;;;;;;3.50;1.97;;;8.90;92.00;;;;;;5067555;28;20028;-52
2021/12/01 07:55:44;;;;;;;3.30;1.75;;;8.90;92.10;;;;;;5067763;28;20059;-49
2021/12/01 07:58:13;;;;;;;3.17;1.90;;;8.80;92.10;;;;;;5068710;28;20021;-53
2021/12/01 08:00:40;;;;;;;3.20;2.17;;;8.90;92.20;;;;;;5062110;28;20099;-48
2021/12/01 08:03:10;;;;;;;2.92;1.77;;;8.80;92.10;;;;;;5068721;28;20035;-53
2021/12/01 08:05:39;;;;;;;;;;;8.80;92.10;;;;;;5056695;28;20028;-49
2021/12/01 08:08:10;;;;;;;4.97;2.08;;;8.80;92.20;;;;;;5069060;28;20282;-54
2021/12/01 08:10:41;;;;;;;4.15;3.17;;;8.80;92.20;;;;;;5068914;28;20033;-53
2021/12/01 08:13:12;;;;;;;4.35;2.58;;;8.80;92.20;;;;;;5068133;28;20347;-53
2021/12/01 08:15:39;;;;;;;3.70;2.38;;;8.80;92.20;;;;;;5067931;28;20040;-53
2021/12/01 08:18:05;;;;;;;3.72;2.45;;;8.80;92.20;;;;;;5069038;28;20587;-50
2021/12/01 08:20:31;;;;;;;3.38;2.03;;;8.80;92.20;;;;;;5068310;28;20086;-53
2021/12/01 08:23:00;;;;;;;3.85;2.28;;;8.70;92.30;;;;;;5068988;28;20437;-53
2021/12/01 08:25:26;;;;;;;3.50;1.95;;;8.80;92.30;;;;;;5068431;28;20036;-52
2021/12/01 08:27:55;;;;;;;4.80;2.35;;;8.80;92.20;;;;;;5038699;28;20171;-57
2021/12/01 08:30:21;;;;;;;3.30;2.13;;;8.80;92.20;;;;;;5067923;28;20034;-54
2021/12/01 08:32:54;;;;;;;3.50;1.92;;;8.80;92.20;;;;;;5068187;28;20068;-56
2021/12/01 08:35:29;;;;;;;2.88;1.80;;;8.80;92.20;;;;;;5067800;28;20342;-58
2021/12/01 08:37:59;;;;;;;2.88;1.80;;;8.70;92.20;;;;;;5068147;28;20060;-56
2021/12/01 08:40:25;;;;;;;;;;;8.80;92.20;;;;;;5050524;28;20043;-49
2021/12/01 08:42:54;;;;;;;4.47;2.05;;;8.80;92.20;;;;;;5034314;28;19913;-58
2021/12/01 08:45:20;;;;;;;4.05;2.00;;;8.70;92.20;;;;;;5041534;28;20036;-56
2021/12/01 08:47:51;;;;;;;2.78;1.75;;;8.70;92.20;;;;;;5045036;28;20426;-51
2021/12/01 08:50:17;;;;;;;3.17;1.90;;;8.80;92.30;;;;;;5054796;28;20029;-51
2021/12/01 08:52:49;;;;;;;2.40;1.55;;;8.80;92.20;;;;;;5049099;28;20491;-51
2021/12/01 08:55:15;;;;;;;2.30;1.35;;;8.70;92.10;;;;;;5064636;28;20560;-53
2021/12/01 08:57:45;;;;;;;3.58;1.70;;;8.70;91.90;;;;;;5065183;28;20036;-50
2021/12/01 09:00:12;;;;;;;2.72;1.83;;;8.80;91.70;;;;;;5067606;28;20037;-51
2021/12/01 09:02:41;;;;;;;2.75;1.70;;;8.80;91.50;;;;;;5067299;28;20120;-49
2021/12/01 09:05:07;;;;;;;2.63;1.42;;;8.80;91.50;;;;;;5051251;28;20020;-50
2021/12/01 09:07:33;;;;;;;2.38;1.20;;;8.90;91.40;;;;;;5060335;28;20044;-48
2021/12/01 09:09:59;;;;;;;2.55;1.30;;;8.90;91.40;;;;;;5033731;28;20119;-47
2021/12/01 09:12:26;;;;;;;4.32;2.00;;;8.90;91.40;;;;;;5067815;28;20557;-46
2021/12/01 09:14:52;;;;;;;2.50;1.50;;;8.90;91.50;;;;;;5067359;28;20064;-49
2021/12/01 09:17:19;;;;;;;2.15;1.42;;;8.90;91.50;;;;;;5017401;28;20033;-46
2021/12/01 09:19:45;;;;;;;3.88;1.67;;;8.90;91.30;;;;;;5067796;28;20040;-47
2021/12/01 09:22:13;;;;;;;2.55;1.45;;;8.90;91.30;;;;;;5067889;28;20034;-45
2021/12/01 09:24:41;;;;;;;3.22;1.90;;;8.90;91.20;;;;;;5063248;28;20425;-47
2021/12/01 09:27:07;;;;;;;2.45;1.55;;;8.90;91.10;;;;;;5027001;28;20111;-46
2021/12/01 09:29:33;;;;;;;3.97;1.90;;;8.90;91.20;;;;;;5027719;28;20045;-46
2021/12/01 09:32:02;;;;;;;2.80;1.83;;;8.90;90.90;;;;;;5027883;28;20038;-48
2021/12/01 09:34:27;;;;;;;3.88;2.30;;;8.90;90.90;;;;;;5027959;28;20068;-47
2021/12/01 09:36:56;;;;;;;3.33;2.00;;;8.90;91.00;;;;;;5028396;28;20069;-49
2021/12/01 09:39:23;;;;;;;6.05;2.05;;;8.90;90.90;;;;;;5030704;28;20029;-47
2021/12/01 09:41:49;;;;;;;3.83;2.08;;;9.00;90.80;;;;;;5031578;28;20030;-47
2021/12/01 09:44:17;;;;;;;3.45;1.70;;;9.00;90.90;;;;;;5030511;28;20029;-47
2021/12/01 09:46:43;;;;;;;2.58;1.48;;;9.00;90.80;;;;;;5030940;28;20034;-46
2021/12/01 09:49:10;;;;;;;5.75;1.58;;;9.00;90.40;;;;;;5032053;28;20342;-47
2021/12/01 09:51:37;;;;;;;3.72;2.30;;;9.00;90.10;;;;;;5030287;28;20040;-46
2021/12/01 09:54:05;;;;;;;3.47;1.67;;;9.00;90.00;;;;;;5031073;28;20033;-48
2021/12/01 09:56:33;;;;;;;2.78;1.48;;;9.00;90.10;;;;;;5030497;28;20065;-50
2021/12/01 09:59:01;;;;;;;3.58;1.58;;;9.00;90.10;;;;;;5031649;28;20370;-49
2021/12/01 10:01:28;;;;;;;3.05;1.20;;;9.00;90.10;;;;;;5029285;28;20026;-47
2021/12/01 10:03:55;;;;;;;3.88;1.40;;;9.00;89.70;;;;;;5031336;28;20132;-45
2021/12/01 10:06:25;;;;;;;4.40;1.27;;;9.10;89.40;;;;;;5030543;28;20490;-46
2021/12/01 10:09:05;;;;;;;3.08;1.30;;;9.10;89.10;;;;;;5031783;28;20691;-45
2021/12/01 10:11:36;;;;;;;6.60;2.00;;;9.20;88.50;;;;;;5030870;28;20112;-45
2021/12/01 10:14:21;;;;;;;4.82;2.60;;;9.20;88.30;;;;;;5031144;28;20068;-46
2021/12/01 10:16:52;;;;;;;5.80;1.60;;;9.20;88.00;;;;;;5020399;28;20513;-46
2021/12/01 10:19:18;;;;;;;3.08;1.00;;;9.20;88.30;;;;;;5031059;28;20038;-47
2021/12/01 10:22:07;;;;;;;3.55;0.95;;;9.20;88.40;;;;;;5030705;28;20049;-45
2021/12/01 10:24:35;;;;;;;4.88;1.10;;;9.20;88.30;;;;;;5030548;28;20073;-49
2021/12/01 10:27:08;;;;;;;4.55;1.20;;;9.20;88.20;;;;;;5046100;28;20052;-45
2021/12/01 10:29:43;;;;;;;4.78;1.33;;;9.10;88.50;;;;;;5070611;28;20043;-46
2021/12/01 10:32:14;;;;;;;5.30;1.17;;;9.10;88.80;;;;;;5070808;28;20038;-46
2021/12/01 10:34:43;;;;;;;6.78;3.28;;;9.00;89.10;;;;;;5070380;28;20039;-45
2021/12/01 10:37:15;;;;;;;6.10;1.33;;;9.00;89.40;;;;;;5070207;28;20025;-45
2021/12/01 10:39:47;;;;;;;4.82;1.70;;;9.00;89.50;;;;;;5070669;28;20024;-47
2021/12/01 10:42:16;;;;;;;4.72;1.42;;;8.90;89.40;;;;;;5070210;28;20461;-46
2021/12/01 10:45:05;;;;;;;2.90;1.10;;;9.00;89.30;;;;;;5065990;28;20047;-46
2021/12/01 10:47:40;;;;;;;7.03;1.10;;;9.00;89.30;;;;;;5069978;28;20067;-46
2021/12/01 10:50:15;;;;;;;3.00;0.90;;;9.00;88.50;;;;;;5069162;28;20029;-49
2021/12/01 10:52:45;;;;;;;12.73;3.53;;;9.00;88.20;;;;;;5060165;28;20051;-44
2021/12/01 10:55:21;;;;;;;6.45;1.15;;;9.10;87.80;;;;;;5069591;28;20051;-45
2021/12/01 10:57:58;;;;;;;4.15;2.53;;;9.10;87.40;;;;;;5069580;28;20043;-46
2021/12/01 11:00:36;;;;;;;6.95;1.58;;;9.20;87.40;;;;;;5052857;28;20035;-46
2021/12/01 11:03:13;;;;;;;4.88;1.38;;;9.20;87.30;;;;;;5053813;28;20027;-45
2021/12/01 11:05:47;;;;;;;11.15;1.85;;;9.10;86.90;;;;;;5064255;28;20032;-45
2021/12/01 11:08:26;;;;;;;4.50;1.08;;;9.20;87.00;;;;;;5070321;28;20021;-46
2021/12/01 11:11:13;;;;;;;6.13;1.07;;;9.10;87.20;;;;;;5067475;28;20037;-44
2021/12/01 11:13:42;;;;;;;3.05;0.93;;;9.10;87.10;;;;;;5062822;28;20069;-45
2021/12/01 11:16:11;;;;;;;4.60;1.05;;;9.10;87.10;;;;;;5069664;28;20029;-46
2021/12/01 11:18:41;;;;;;;6.50;1.58;;;9.00;87.30;;;;;;5068273;28;20040;-45
2021/12/01 11:21:12;;;;;;;4.30;1.48;;;9.10;87.30;;;;;;5069438;28;20362;-43
2021/12/01 11:23:50;;;;;;;7.50;1.83;;;9.10;87.10;;;;;;5069922;28;20056;-44
2021/12/01 11:26:37;;;;;;;5.10;1.33;;;9.00;87.10;;;;;;5069702;28;20066;-45
2021/12/01 11:29:08;;;;;;;3.95;1.25;;;9.00;86.70;;;;;;5025322;28;20051;-46
2021/12/01 11:31:44;;;;;;;5.07;0.98;;;9.10;86.30;;;;;;5029250;28;20025;-44
2021/12/01 11:34:19;;;;;;;9.88;1.52;;;9.10;86.20;;;;;;5029534;28;20030;-44
2021/12/01 11:36:50;;;;;;;6.13;1.70;;;9.10;85.90;;;;;;5029640;28;20079;-46
2021/12/01 11:39:22;;;;;;;7.15;1.27;;;9.10;86.10;;;;;;5029143;28;20029;-44
2021/12/01 11:41:50;;;;;;;5.32;0.82;;;9.20;85.60;;;;;;5026763;28;20045;-46
2021/12/01 11:44:17;;;;;;;10.07;1.80;;;9.30;85.80;;;;;;5029472;28;20032;-44
2021/12/01 11:46:47;;;;;;;8.13;1.55;;;9.30;85.60;;;;;;5028975;28;20033;-45
2021/12/01 11:49:15;;;;;;;7.35;1.42;;;9.30;85.10;;;;;;5029315;28;20104;-43
2021/12/01 11:51:53;;;;;;;8.60;1.83;;;9.30;85.20;;;;;;5028856;28;20346;-48
2021/12/01 11:54:21;;;;;;;7.32;1.35;;;9.20;84.90;;;;;;5029220;28;20040;-42
2021/12/01 11:56:55;;;;;;;10.10;3.58;;;9.20;84.50;;;;;;5028969;28;20393;-44
2021/12/01 11:59:44;;;;;;;8.63;1.55;;;9.20;84.80;;;;;;5029213;28;20053;-45
2021/12/01 12:02:19;;;;;;;9.32;1.45;;;9.20;85.20;;;;;;5028582;28;20554;-44
2021/12/01 12:04:49;;;;;;;14.68;1.70;;;9.40;86.00;;;;;;5028531;28;20359;-44
2021/12/01 12:07:27;;;;;;;6.00;1.05;;;9.40;85.70;;;;;;5027823;28;20359;-43
2021/12/01 12:10:05;;;;;;;9.25;1.15;;;9.50;85.50;;;;;;5029469;28;20431;-45
2021/12/01 12:13:00;;;;;;;9.07;1.90;;;9.50;85.20;;;;;;5037373;28;20090;-43
2021/12/01 12:15:48;;;;;;;8.45;1.63;;;9.30;84.80;;;;;;5018572;28;20048;-42
2021/12/01 12:18:34;;;;;;;7.75;1.92;;;9.10;85.30;;;;;;5027419;28;20133;-43
2021/12/01 12:21:24;;;;;;;6.55;1.77;;;8.90;85.90;;;;;;5028110;28;20048;-46
2021/12/01 12:24:01;;;;;;;6.32;1.55;;;8.90;86.00;;;;;;5022607;28;20131;-42
2021/12/01 12:26:41;;;;;;;11.85;2.67;;;8.80;86.20;;;;;;5030253;28;20340;-44
2021/12/01 12:29:09;;;;;;;;;;;8.80;86.40;;;;;;5069079;28;20043;-45
2021/12/01 12:31:35;;;;;;;13.75;2.13;;;8.80;85.60;;;;;;5067919;28;19908;-44
2021/12/01 12:34:08;;;;;;;11.85;2.00;;;8.70;84.70;;;;;;5067701;28;20033;-43
2021/12/01 12:36:57;;;;;;;16.10;3.25;;;8.70;83.40;;;;;;5067310;28;20442;-44
2021/12/01 12:39:24;;;;;;;8.82;2.53;;;8.50;84.00;;;;;;5066831;28;20442;-49
2021/12/01 12:42:08;;;;;;;14.93;3.17;;;8.30;83.70;;;;;;5051079;28;20115;-43
2021/12/01 12:44:38;;;;;;;10.25;2.03;;;8.20;84.10;;;;;;5068098;28;20070;-44
2021/12/01 12:47:10;;;;;;;13.85;1.92;;;8.00;83.80;;;;;;5067447;28;20356;-43
2021/12/01 12:49:38;;;;;;;14.70;3.28;;;8.00;84.00;;;;;;5068290;28;20067;-44
2021/12/01 12:52:30;;;;;;;9.85;2.75;;;8.00;83.60;;;;;;5053189;28;20112;-45
2021/12/01 12:55:06;;;;;;;15.88;3.28;;;8.00;82.90;;;;;;5049579;28;20051;-43
2021/12/01 12:57:56;;;;;;;22.98;5.70;;;7.90;84.00;;;;;;5067179;28;20028;-42
2021/12/01 13:00:44;;;;;;;11.82;2.53;;;7.90;83.80;;;;;;5064855;28;20102;-44
2021/12/01 13:03:31;;;;;;;17.48;3.22;;;7.80;84.40;;;;;;5066537;28;20323;-44
2021/12/01 13:06:05;;;;;;;18.88;3.83;;;7.60;86.10;;;;;;5067490;28;20032;-47
2021/12/01 13:08:34;;;;;;;28.13;7.53;;;7.50;86.90;;;;;;5067164;28;20527;-51
2021/12/01 13:11:15;;;;;;;16.50;2.95;;;7.40;87.50;;;;;;5067906;28;20074;-57
2021/12/01 13:13:43;;;;;;;19.25;3.35;;;7.30;87.70;;;;;;5070226;28;20077;-51
2021/12/01 13:16:12;;;;;;;10.50;3.03;;;7.20;88.40;;;;;;5055848;28;20021;-53
2021/12/01 13:18:44;;;;;;;13.70;3.67;;;7.20;88.70;;;;;;5071981;28;20025;-55
2021/12/01 13:21:22;;;;;;;10.25;3.00;;;7.20;88.80;;;;;;5056215;28;20404;-51